sensor_id;sensor_type;location;lat;lon;timestamp;pressure;altitude;pressure_sealevel;temperature;humidity
13348;BME280;6743;49.934;9.138;2023-01-25T00:01:42;102379.37;;;2.22;100.00
13348;BME280;6743;49.934;9.138;2023-01-25T00:04:08;102382.84;;;2.23;100.00
13348;BME280;6743;49.934;9.138;2023-01-25T00:06:34;102371.59;;;2.21;100.00
13348;BME280;6743;49.934;9.138;2023-01-25T00:09:01;102371.59;;;2.21;100.00
13348;BME280;6743;49.934;9.138;2023-01-25T00:11:26;102376.84;;;2.21;100.00
13348;BME280;6743;49.934;9.138;2023-01-25T00:13:53;102375.13;;;2.20;100.00
13348;BME280;6743;49.934;9.138;2023-01-25T00:16:20;102380.38;;;2.20;100.00
13348;BME280;6743;49.934;9.138;2023-01-25T00:18:47;102373.41;;;2.19;100.00
13348;BME280;6743;49.934;9.138;2023-01-25T00:21:14;102364.72;;;2.18;100.00
13348;BME280;6743;49.934;9.138;2023-01-25T00:23:40;102366.41;;;2.19;100.00
13348;BME280;6743;49.934;9.138;2023-01-25T00:26:06;102357.66;;;2.20;100.00
13348;BME280;6743;49.934;9.138;2023-01-25T00:28:32;102366.41;;;2.19;100.00
13348;BME280;6743;49.934;9.138;2023-01-25T00:30:59;102367.28;;;2.20;100.00
13348;BME280;6743;49.934;9.138;2023-01-25T00:33:34;102369.09;;;2.18;100.00
13348;BME280;6743;49.934;9.138;2023-01-25T00:36:27;102345.16;;;2.05;100.00
13348;BME280;6743;49.934;9.138;2023-01-25T00:38:57;102361.22;;;2.18;100.00
13348;BME280;6743;49.934;9.138;2023-01-25T00:41:23;102363.91;;;2.16;100.00
13348;BME280;6743;49.934;9.138;2023-01-25T00:43:49;102371.75;;;2.16;100.00
13348;BME280;6743;49.934;9.138;2023-01-25T00:46:17;102356.09;;;2.15;100.00
13348;BME280;6743;49.934;9.138;2023-01-25T00:48:43;102354.41;;;2.14;100.00
13348;BME280;6743;49.934;9.138;2023-01-25T00:51:10;102359.66;;;2.14;100.00
13348;BME280;6743;49.934;9.138;2023-01-25T00:53:36;102353.56;;;2.13;100.00
13348;BME280;6743;49.934;9.138;2023-01-25T00:56:03;102352.72;;;2.13;100.00
13348;BME280;6743;49.934;9.138;2023-01-25T00:58:29;102331.19;;;2.05;100.00
13348;BME280;6743;49.934;9.138;2023-01-25T01:00:56;102347.47;;;2.13;100.00
13348;BME280;6743;49.934;9.138;2023-01-25T01:03:23;102346.56;;;2.14;100.00
13348;BME280;6743;49.934;9.138;2023-01-25T01:05:58;102332.78;;;2.09;100.00
13348;BME280;6743;49.934;9.138;2023-01-25T01:08:24;102330.00;;;2.13;100.00
13348;BME280;6743;49.934;9.138;2023-01-25T01:10:50;102342.25;;;2.13;100.00
13348;BME280;6743;49.934;9.138;2023-01-25T01:13:16;102339.63;;;2.13;100.00
13348;BME280;6743;49.934;9.138;2023-01-25T01:15:42;102346.56;;;2.14;100.00
13348;BME280;6743;49.934;9.138;2023-01-25T01:18:08;102344.81;;;2.14;100.00
13348;BME280;6743;49.934;9.138;2023-01-25T01:20:35;102343.09;;;2.13;100.00
13348;BME280;6743;49.934;9.138;2023-01-25T01:23:01;102340.53;;;2.12;100.00
13348;BME280;6743;49.934;9.138;2023-01-25T01:25:27;102344.00;;;2.12;100.00
13348;BME280;6743;49.934;9.138;2023-01-25T01:27:52;102360.62;;;2.11;100.00
13348;BME280;6743;49.934;9.138;2023-01-25T01:30:18;102344.06;;;2.11;100.00
13348;BME280;6743;49.934;9.138;2023-01-25T01:32:44;102350.16;;;2.11;100.00
13348;BME280;6743;49.934;9.138;2023-01-25T01:35:10;102349.28;;;2.11;100.00
13348;BME280;6743;49.934;9.138;2023-01-25T01:37:40;102350.19;;;2.10;100.00
13348;BME280;6743;49.934;9.138;2023-01-25T01:40:08;102346.88;;;2.06;100.00
13348;BME280;6743;49.934;9.138;2023-01-25T01:42:57;102339.97;;;2.04;100.00
13348;BME280;6743;49.934;9.138;2023-01-25T01:45:49;102340.88;;;2.03;100.00
13348;BME280;6743;49.934;9.138;2023-01-25T01:48:17;102341.87;;;2.00;100.00
13348;BME280;6743;49.934;9.138;2023-01-25T01:50:45;102325.59;;;1.92;100.00
13348;BME280;6743;49.934;9.138;2023-01-25T01:53:13;102334.97;;;1.97;100.00
13348;BME280;6743;49.934;9.138;2023-01-25T01:55:39;102334.97;;;1.97;100.00
13348;BME280;6743;49.934;9.138;2023-01-25T01:58:06;102327.12;;;1.97;100.00
13348;BME280;6743;49.934;9.138;2023-01-25T02:00:40;102326.25;;;1.97;100.00
13348;BME280;6743;49.934;9.138;2023-01-25T02:03:11;102325.41;;;1.96;100.00
13348;BME280;6743;49.934;9.138;2023-01-25T02:05:45;102330.66;;;1.96;100.00
13348;BME280;6743;49.934;9.138;2023-01-25T02:08:14;102332.47;;;1.94;100.00
13348;BME280;6743;49.934;9.138;2023-01-25T02:10:41;102332.47;;;1.94;100.00
13348;BME280;6743;49.934;9.138;2023-01-25T02:13:08;102332.47;;;1.94;100.00
13348;BME280;6743;49.934;9.138;2023-01-25T02:15:38;102322.84;;;1.95;100.00
13348;BME280;6743;49.934;9.138;2023-01-25T02:18:05;102325.47;;;1.95;100.00
13348;BME280;6743;49.934;9.138;2023-01-25T02:20:34;102327.22;;;1.94;100.00
13348;BME280;6743;49.934;9.138;2023-01-25T02:23:08;102321.06;;;1.95;100.00
13348;BME280;6743;49.934;9.138;2023-01-25T02:25:38;102322.94;;;1.93;100.00
13348;BME280;6743;49.934;9.138;2023-01-25T02:28:09;102323.03;;;1.90;100.00
13348;BME280;6743;49.934;9.138;2023-01-25T02:30:37;102310.91;;;1.88;100.00
13348;BME280;6743;49.934;9.138;2023-01-25T02:33:03;102313.53;;;1.88;100.00
13348;BME280;6743;49.934;9.138;2023-01-25T02:35:40;102305.81;;;1.85;100.00
13348;BME280;6743;49.934;9.138;2023-01-25T02:38:08;102318.88;;;1.85;100.00
13348;BME280;6743;49.934;9.138;2023-01-25T02:40:40;102307.56;;;1.84;100.00
13348;BME280;6743;49.934;9.138;2023-01-25T02:43:07;102313.59;;;1.86;100.00
13348;BME280;6743;49.934;9.138;2023-01-25T02:45:33;102311.81;;;1.87;100.00
13348;BME280;6743;49.934;9.138;2023-01-25T02:47:59;102317.97;;;1.86;100.00
13348;BME280;6743;49.934;9.138;2023-01-25T02:50:25;102292.25;;;1.74;100.00
13348;BME280;6743;49.934;9.138;2023-01-25T02:52:51;102324.13;;;1.85;100.00
13348;BME280;6743;49.934;9.138;2023-01-25T02:55:17;102310.19;;;1.84;100.00
13348;BME280;6743;49.934;9.138;2023-01-25T02:57:44;102304.94;;;1.84;100.00
13348;BME280;6743;49.934;9.138;2023-01-25T03:00:11;102304.94;;;1.84;100.00
13348;BME280;6743;49.934;9.138;2023-01-25T03:02:37;102307.56;;;1.84;100.00
13348;BME280;6743;49.934;9.138;2023-01-25T03:05:03;102303.25;;;1.83;100.00
13348;BME280;6743;49.934;9.138;2023-01-25T03:07:30;102310.22;;;1.83;100.00
13348;BME280;6743;49.934;9.138;2023-01-25T03:09:55;102300.66;;;1.82;100.00
13348;BME280;6743;49.934;9.138;2023-01-25T03:12:21;102306.81;;;1.81;100.00
13348;BME280;6743;49.934;9.138;2023-01-25T03:14:48;102298.06;;;1.82;100.00
13348;BME280;6743;49.934;9.138;2023-01-25T03:17:14;102298.97;;;1.81;100.00
13348;BME280;6743;49.934;9.138;2023-01-25T03:19:40;102301.56;;;1.81;100.00
13348;BME280;6743;49.934;9.138;2023-01-25T03:22:06;102293.81;;;1.79;100.00
13348;BME280;6743;49.934;9.138;2023-01-25T03:24:32;102292.16;;;1.77;100.00
13348;BME280;6743;49.934;9.138;2023-01-25T03:26:58;102304.56;;;1.72;100.00
13348;BME280;6743;49.934;9.138;2023-01-25T03:29:36;102302.81;;;1.72;100.00
13348;BME280;6743;49.934;9.138;2023-01-25T03:32:03;102293.28;;;1.70;100.00
13348;BME280;6743;49.934;9.138;2023-01-25T03:34:29;102294.16;;;1.70;100.00
13348;BME280;6743;49.934;9.138;2023-01-25T03:36:55;102295.88;;;1.71;100.00
13348;BME280;6743;49.934;9.138;2023-01-25T03:39:21;102288.88;;;1.72;100.00
13348;BME280;6743;49.934;9.138;2023-01-25T03:41:47;102287.25;;;1.68;100.00
13348;BME280;6743;49.934;9.138;2023-01-25T03:44:13;102283.75;;;1.69;100.00
13348;BME280;6743;49.934;9.138;2023-01-25T03:46:40;102283.69;;;1.70;100.00
13348;BME280;6743;49.934;9.138;2023-01-25T03:49:07;102284.66;;;1.68;100.00
13348;BME280;6743;49.934;9.138;2023-01-25T03:51:33;102277.66;;;1.68;100.00
13348;BME280;6743;49.934;9.138;2023-01-25T03:54:00;102278.56;;;1.67;100.00
13348;BME280;6743;49.934;9.138;2023-01-25T03:56:26;102275.09;;;1.67;100.00
13348;BME280;6743;49.934;9.138;2023-01-25T03:58:52;102278.56;;;1.67;100.00
13348;BME280;6743;49.934;9.138;2023-01-25T04:01:18;102273.31;;;1.67;100.00
13348;BME280;6743;49.934;9.138;2023-01-25T04:03:44;102275.03;;;1.68;100.00
13348;BME280;6743;49.934;9.138;2023-01-25T04:06:11;102283.75;;;1.69;100.00
13348;BME280;6743;49.934;9.138;2023-01-25T04:08:37;102282.06;;;1.66;100.00
13348;BME280;6743;49.934;9.138;2023-01-25T04:11:05;102276.94;;;1.65;100.00
13348;BME280;6743;49.934;9.138;2023-01-25T04:13:31;102276.94;;;1.65;100.00
13348;BME280;6743;49.934;9.138;2023-01-25T04:15:59;102276.06;;;1.64;100.00
13348;BME280;6743;49.934;9.138;2023-01-25T04:18:25;102268.22;;;1.64;100.00
13348;BME280;6743;49.934;9.138;2023-01-25T04:20:52;102271.75;;;1.63;100.00
13348;BME280;6743;49.934;9.138;2023-01-25T04:23:20;102263.09;;;1.61;100.00
13348;BME280;6743;49.934;9.138;2023-01-25T04:25:51;102265.72;;;1.61;100.00
13348;BME280;6743;49.934;9.138;2023-01-25T04:28:17;102257.88;;;1.61;100.00
13348;BME280;6743;49.934;9.138;2023-01-25T04:30:44;102256.16;;;1.60;100.00
13348;BME280;6743;49.934;9.138;2023-01-25T04:33:10;102258.66;;;1.63;100.00
13348;BME280;6743;49.934;9.138;2023-01-25T04:35:36;102257.81;;;1.63;100.00
13348;BME280;6743;49.934;9.138;2023-01-25T04:38:02;102263.03;;;1.63;100.00
13348;BME280;6743;49.934;9.138;2023-01-25T04:40:29;102255.28;;;1.59;100.00
13348;BME280;6743;49.934;9.138;2023-01-25T04:42:55;102254.41;;;1.61;100.00
13348;BME280;6743;49.934;9.138;2023-01-25T04:45:22;102251.88;;;1.59;100.00
13348;BME280;6743;49.934;9.138;2023-01-25T04:47:48;102250.00;;;1.61;100.00
13348;BME280;6743;49.934;9.138;2023-01-25T04:50:14;102244.78;;;1.61;100.00
13348;BME280;6743;49.934;9.138;2023-01-25T04:52:40;102240.47;;;1.60;100.00
13348;BME280;6743;49.934;9.138;2023-01-25T04:55:06;102240.47;;;1.60;100.00
13348;BME280;6743;49.934;9.138;2023-01-25T04:57:33;102238.69;;;1.61;100.00
13348;BME280;6743;49.934;9.138;2023-01-25T04:59:59;102233.47;;;1.61;100.00
13348;BME280;6743;49.934;9.138;2023-01-25T05:02:25;102227.38;;;1.60;100.00
13348;BME280;6743;49.934;9.138;2023-01-25T05:04:51;102227.38;;;1.60;100.00
13348;BME280;6743;49.934;9.138;2023-01-25T05:07:17;102228.31;;;1.59;100.00
13348;BME280;6743;49.934;9.138;2023-01-25T05:09:43;102222.28;;;1.57;100.00
13348;BME280;6743;49.934;9.138;2023-01-25T05:12:09;102224.84;;;1.58;100.00
13348;BME280;6743;49.934;9.138;2023-01-25T05:14:38;102217.91;;;1.57;100.00
13348;BME280;6743;49.934;9.138;2023-01-25T05:17:05;102215.34;;;1.56;100.00
13348;BME280;6743;49.934;9.138;2023-01-25T05:19:31;102203.16;;;1.55;100.00
13348;BME280;6743;49.934;9.138;2023-01-25T05:21:57;102202.31;;;1.54;100.00
13348;BME280;6743;49.934;9.138;2023-01-25T05:24:23;102203.16;;;1.55;100.00
13348;BME280;6743;49.934;9.138;2023-01-25T05:26:49;102203.16;;;1.55;100.00
13348;BME280;6743;49.934;9.138;2023-01-25T05:29:32;102197.94;;;1.55;100.00
13348;BME280;6743;49.934;9.138;2023-01-25T05:32:01;102189.22;;;1.54;100.00
13348;BME280;6743;49.934;9.138;2023-01-25T05:34:28;102196.22;;;1.54;100.00
13348;BME280;6743;49.934;9.138;2023-01-25T05:36:54;102197.09;;;1.54;100.00
13348;BME280;6743;49.934;9.138;2023-01-25T05:39:20;102197.09;;;1.54;100.00
13348;BME280;6743;49.934;9.138;2023-01-25T05:41:46;102199.75;;;1.53;100.00
13348;BME280;6743;49.934;9.138;2023-01-25T05:44:12;102184.28;;;1.47;100.00
13348;BME280;6743;49.934;9.138;2023-01-25T05:46:37;102194.66;;;1.50;100.00
13348;BME280;6743;49.934;9.138;2023-01-25T05:49:04;102195.56;;;1.49;100.00
13348;BME280;6743;49.934;9.138;2023-01-25T05:51:30;102205.12;;;1.50;100.00
13348;BME280;6743;49.934;9.138;2023-01-25T05:53:57;102200.78;;;1.49;100.00
13348;BME280;6743;49.934;9.138;2023-01-25T05:56:23;102192.13;;;1.47;100.00
13348;BME280;6743;49.934;9.138;2023-01-25T05:58:52;102199.87;;;1.50;100.00
13348;BME280;6743;49.934;9.138;2023-01-25T06:01:18;102198.12;;;1.50;100.00
13348;BME280;6743;49.934;9.138;2023-01-25T06:03:44;102195.38;;;1.53;100.00
13348;BME280;6743;49.934;9.138;2023-01-25T06:06:11;102194.50;;;1.53;100.00
13348;BME280;6743;49.934;9.138;2023-01-25T06:08:37;102191.84;;;1.54;100.00
13348;BME280;6743;49.934;9.138;2023-01-25T06:11:06;102194.47;;;1.54;100.00
13348;BME280;6743;49.934;9.138;2023-01-25T06:13:32;102204.03;;;1.55;100.00
13348;BME280;6743;49.934;9.138;2023-01-25T06:15:58;102196.22;;;1.54;100.00
13348;BME280;6743;49.934;9.138;2023-01-25T06:18:24;102199.69;;;1.54;100.00
13348;BME280;6743;49.934;9.138;2023-01-25T06:20:50;102177.44;;;1.44;100.00
13348;BME280;6743;49.934;9.138;2023-01-25T06:23:20;102186.66;;;1.53;100.00
13348;BME280;6743;49.934;9.138;2023-01-25T06:25:46;102191.12;;;1.51;100.00
13348;BME280;6743;49.934;9.138;2023-01-25T06:28:11;102187.66;;;1.50;100.00
13348;BME280;6743;49.934;9.138;2023-01-25T06:30:37;102185.03;;;1.50;100.00
13348;BME280;6743;49.934;9.138;2023-01-25T06:33:03;102182.44;;;1.50;100.00
13348;BME280;6743;49.934;9.138;2023-01-25T06:35:30;102191.12;;;1.51;100.00
13348;BME280;6743;49.934;9.138;2023-01-25T06:37:57;102190.22;;;1.52;100.00
13348;BME280;6743;49.934;9.138;2023-01-25T06:40:25;102165.31;;;1.42;100.00
13348;BME280;6743;49.934;9.138;2023-01-25T06:42:51;102196.22;;;1.54;100.00
13348;BME280;6743;49.934;9.138;2023-01-25T06:45:19;102190.22;;;1.52;100.00
13348;BME280;6743;49.934;9.138;2023-01-25T06:47:47;102197.28;;;1.50;100.00
13348;BME280;6743;49.934;9.138;2023-01-25T06:50:14;102177.75;;;1.37;100.00
13348;BME280;6743;49.934;9.138;2023-01-25T06:52:40;102194.75;;;1.47;100.00
13348;BME280;6743;49.934;9.138;2023-01-25T06:55:07;102184.28;;;1.47;100.00
13348;BME280;6743;49.934;9.138;2023-01-25T06:57:37;102187.81;;;1.46;100.00
13348;BME280;6743;49.934;9.138;2023-01-25T07:00:05;102183.56;;;1.43;100.00
13348;BME280;6743;49.934;9.138;2023-01-25T07:02:31;102185.34;;;1.43;100.00
13348;BME280;6743;49.934;9.138;2023-01-25T07:04:57;102184.50;;;1.42;100.00
13348;BME280;6743;49.934;9.138;2023-01-25T07:07:23;102187.09;;;1.42;100.00
13348;BME280;6743;49.934;9.138;2023-01-25T07:09:53;102182.06;;;1.38;100.00
13348;BME280;6743;49.934;9.138;2023-01-25T07:12:24;102188.00;;;1.41;100.00
13348;BME280;6743;49.934;9.138;2023-01-25T07:14:51;102177.84;;;1.34;100.00
13348;BME280;6743;49.934;9.138;2023-01-25T07:17:18;102197.62;;;1.41;100.00
13348;BME280;6743;49.934;9.138;2023-01-25T07:19:45;102198.53;;;1.40;100.00
13348;BME280;6743;49.934;9.138;2023-01-25T07:22:12;102180.59;;;1.31;100.00
13348;BME280;6743;49.934;9.138;2023-01-25T07:24:41;102191.53;;;1.40;100.00
13348;BME280;6743;49.934;9.138;2023-01-25T07:27:14;102184.53;;;1.41;100.00
13348;BME280;6743;49.934;9.138;2023-01-25T07:29:40;102182.25;;;1.32;100.00
13348;BME280;6743;49.934;9.138;2023-01-25T07:32:06;102183.81;;;1.37;100.00
13348;BME280;6743;49.934;9.138;2023-01-25T07:34:33;102195.91;;;1.40;100.00
13348;BME280;6743;49.934;9.138;2023-01-25T07:36:59;102181.97;;;1.39;100.00
13348;BME280;6743;49.934;9.138;2023-01-25T07:39:25;102186.53;;;1.34;100.00
13348;BME280;6743;49.934;9.138;2023-01-25T07:41:51;102189.16;;;1.34;100.00
13348;BME280;6743;49.934;9.138;2023-01-25T07:44:17;102184.81;;;1.33;100.00
13348;BME280;6743;49.934;9.138;2023-01-25T07:46:45;102186.53;;;1.34;100.00
13348;BME280;6743;49.934;9.138;2023-01-25T07:49:13;102192.69;;;1.33;100.00
13348;BME280;6743;49.934;9.138;2023-01-25T07:51:39;102179.78;;;1.29;100.00
13348;BME280;6743;49.934;9.138;2023-01-25T07:54:06;102192.06;;;1.27;100.00
13348;BME280;6743;49.934;9.138;2023-01-25T07:56:34;102185.03;;;1.29;100.00
13348;BME280;6743;49.934;9.138;2023-01-25T07:59:02;102186.69;;;1.31;100.00
13348;BME280;6743;49.934;9.138;2023-01-25T08:01:29;102188.34;;;1.32;100.00
13348;BME280;6743;49.934;9.138;2023-01-25T08:03:56;102191.75;;;1.34;100.00
13348;BME280;6743;49.934;9.138;2023-01-25T08:06:29;102186.47;;;1.36;100.00
13348;BME280;6743;49.934;9.138;2023-01-25T08:09:06;102190.81;;;1.37;100.00
13348;BME280;6743;49.934;9.138;2023-01-25T08:11:34;102186.44;;;1.37;100.00
13348;BME280;6743;49.934;9.138;2023-01-25T08:14:01;102182.06;;;1.38;100.00
13348;BME280;6743;49.934;9.138;2023-01-25T08:16:30;102175.87;;;1.39;100.00
13348;BME280;6743;49.934;9.138;2023-01-25T08:19:00;102165.81;;;1.30;100.00
13348;BME280;6743;49.934;9.138;2023-01-25T08:21:27;102175.87;;;1.39;100.00
13348;BME280;6743;49.934;9.138;2023-01-25T08:23:55;102181.97;;;1.39;100.00
13348;BME280;6743;49.934;9.138;2023-01-25T08:26:21;102170.78;;;1.36;100.00
13348;BME280;6743;49.934;9.138;2023-01-25T08:28:48;102177.69;;;1.38;100.00
13348;BME280;6743;49.934;9.138;2023-01-25T08:31:15;102184.53;;;1.41;100.00
13348;BME280;6743;49.934;9.138;2023-01-25T08:33:43;102154.53;;;1.28;100.00
13348;BME280;6743;49.934;9.138;2023-01-25T08:36:11;102169.69;;;1.41;100.00
13348;BME280;6743;49.934;9.138;2023-01-25T08:38:38;102177.50;;;1.43;100.00
13348;BME280;6743;49.934;9.138;2023-01-25T08:41:04;102173.13;;;1.43;100.00
13348;BME280;6743;49.934;9.138;2023-01-25T08:43:30;102173.16;;;1.42;100.00
13348;BME280;6743;49.934;9.138;2023-01-25T08:45:56;102172.25;;;1.43;100.00
13348;BME280;6743;49.934;9.138;2023-01-25T08:48:22;102162.00;;;1.38;100.00
13348;BME280;6743;49.934;9.138;2023-01-25T08:50:48;102168.75;;;1.44;100.00
13348;BME280;6743;49.934;9.138;2023-01-25T08:53:14;102163.50;;;1.44;100.00
13348;BME280;6743;49.934;9.138;2023-01-25T08:55:41;102167.88;;;1.43;100.00
13348;BME280;6743;49.934;9.138;2023-01-25T08:58:08;102158.28;;;1.44;100.00
13348;BME280;6743;49.934;9.138;2023-01-25T09:00:35;102153.28;;;1.38;100.00
13348;BME280;6743;49.934;9.138;2023-01-25T09:03:01;102149.56;;;1.43;100.00
13348;BME280;6743;49.934;9.138;2023-01-25T09:05:27;102153.06;;;1.44;100.00
13348;BME280;6743;49.934;9.138;2023-01-25T09:07:53;102143.50;;;1.43;100.00
13348;BME280;6743;49.934;9.138;2023-01-25T09:10:19;102146.91;;;1.45;100.00
13348;BME280;6743;49.934;9.138;2023-01-25T09:12:45;102142.50;;;1.45;100.00
13348;BME280;6743;49.934;9.138;2023-01-25T09:15:11;102149.53;;;1.45;100.00
13348;BME280;6743;49.934;9.138;2023-01-25T09:17:37;102151.19;;;1.46;100.00
13348;BME280;6743;49.934;9.138;2023-01-25T09:20:05;102150.34;;;1.45;100.00
13348;BME280;6743;49.934;9.138;2023-01-25T09:22:31;102159.00;;;1.47;100.00
13348;BME280;6743;49.934;9.138;2023-01-25T09:25:03;102157.28;;;1.46;100.00
13348;BME280;6743;49.934;9.138;2023-01-25T09:27:29;102153.75;;;1.47;100.00
13348;BME280;6743;49.934;9.138;2023-01-25T09:29:55;102154.66;;;1.46;100.00
13348;BME280;6743;49.934;9.138;2023-01-25T09:32:21;102161.75;;;1.44;100.00
13348;BME280;6743;49.934;9.138;2023-01-25T09:34:47;102157.44;;;1.43;100.00
13348;BME280;6743;49.934;9.138;2023-01-25T09:37:13;102154.75;;;1.45;100.00
13348;BME280;6743;49.934;9.138;2023-01-25T09:39:39;102152.19;;;1.43;100.00
13348;BME280;6743;49.934;9.138;2023-01-25T09:45:16;102148.78;;;1.41;100.00
13348;BME280;6743;49.934;9.138;2023-01-25T09:47:50;102153.16;;;1.41;100.00
13348;BME280;6743;49.934;9.138;2023-01-25T09:50:34;102146.31;;;1.38;100.00
13348;BME280;6743;49.934;9.138;2023-01-25T09:53:24;102140.09;;;1.41;100.00
13348;BME280;6743;49.934;9.138;2023-01-25T09:55:54;102145.19;;;1.44;100.00
13348;BME280;6743;49.934;9.138;2023-01-25T09:58:27;102142.50;;;1.45;100.00
13348;BME280;6743;49.934;9.138;2023-01-25T10:01:04;102139.72;;;1.50;100.00
13348;BME280;6743;49.934;9.138;2023-01-25T10:03:42;102147.53;;;1.51;100.00
13348;BME280;6743;49.934;9.138;2023-01-25T10:06:15;102146.66;;;1.51;100.00
13348;BME280;6743;49.934;9.138;2023-01-25T10:08:48;102143.16;;;1.52;100.00
13348;BME280;6743;49.934;9.138;2023-01-25T10:11:26;102140.59;;;1.50;100.00
13348;BME280;6743;49.934;9.138;2023-01-25T10:13:54;102135.28;;;1.52;100.00
13348;BME280;6743;49.934;9.138;2023-01-25T10:16:24;102136.13;;;1.52;100.00
13348;BME280;6743;49.934;9.138;2023-01-25T10:18:58;102127.38;;;1.53;100.00
13348;BME280;6743;49.934;9.138;2023-01-25T10:21:32;102131.75;;;1.53;100.00
13348;BME280;6743;49.934;9.138;2023-01-25T10:24:20;102127.38;;;1.53;100.00
13348;BME280;6743;49.934;9.138;2023-01-25T10:26:52;102122.97;;;1.54;100.00
13348;BME280;6743;49.934;9.138;2023-01-25T10:29:22;102128.22;;;1.54;100.00
13348;BME280;6743;49.934;9.138;2023-01-25T10:31:53;102114.22;;;1.55;100.00
13348;BME280;6743;49.934;9.138;2023-01-25T10:34:21;102109.00;;;1.55;100.00
13348;BME280;6743;49.934;9.138;2023-01-25T10:36:54;102106.31;;;1.56;100.00
13348;BME280;6743;49.934;9.138;2023-01-25T10:39:20;102107.13;;;1.58;100.00
13348;BME280;6743;49.934;9.138;2023-01-25T10:41:50;102095.66;;;1.61;100.00
13348;BME280;6743;49.934;9.138;2023-01-25T10:44:20;102093.03;;;1.61;100.00
13348;BME280;6743;49.934;9.138;2023-01-25T10:46:49;102091.22;;;1.63;100.00
13348;BME280;6743;49.934;9.138;2023-01-25T10:49:22;102079.06;;;1.62;100.00
13348;BME280;6743;49.934;9.138;2023-01-25T10:51:48;102076.44;;;1.62;100.00
13348;BME280;6743;49.934;9.138;2023-01-25T10:54:15;102070.25;;;1.65;100.00
13348;BME280;6743;49.934;9.138;2023-01-25T10:56:42;102071.09;;;1.65;100.00
13348;BME280;6743;49.934;9.138;2023-01-25T10:59:19;102071.94;;;1.66;100.00
13348;BME280;6743;49.934;9.138;2023-01-25T11:01:46;102069.25;;;1.67;100.00
13348;BME280;6743;49.934;9.138;2023-01-25T11:04:30;102050.28;;;1.62;100.00
13348;BME280;6743;49.934;9.138;2023-01-25T11:06:57;102050.81;;;1.70;100.00
13348;BME280;6743;49.934;9.138;2023-01-25T11:09:35;102047.13;;;1.74;100.00
13348;BME280;6743;49.934;9.138;2023-01-25T11:12:02;102042.00;;;1.73;100.00
13348;BME280;6743;49.934;9.138;2023-01-25T11:14:33;102042.00;;;1.73;100.00
13348;BME280;6743;49.934;9.138;2023-01-25T11:17:00;102034.97;;;1.73;100.00
13348;BME280;6743;49.934;9.138;2023-01-25T11:19:32;102038.38;;;1.75;100.00
13348;BME280;6743;49.934;9.138;2023-01-25T11:22:00;102011.84;;;1.64;100.00
13348;BME280;6743;49.934;9.138;2023-01-25T11:24:27;102023.53;;;1.76;100.00
13348;BME280;6743;49.934;9.138;2023-01-25T11:27:12;102019.22;;;1.75;100.00
13348;BME280;6743;49.934;9.138;2023-01-25T11:29:38;102016.53;;;1.76;100.00
13348;BME280;6743;49.934;9.138;2023-01-25T11:32:13;102006.87;;;1.78;100.00
13348;BME280;6743;49.934;9.138;2023-01-25T11:34:40;102006.87;;;1.78;100.00
13348;BME280;6743;49.934;9.138;2023-01-25T11:37:24;102004.38;;;1.75;100.00
13348;BME280;6743;49.934;9.138;2023-01-25T11:39:56;102000.78;;;1.78;100.00
13348;BME280;6743;49.934;9.138;2023-01-25T11:42:29;101997.25;;;1.79;100.00
13348;BME280;6743;49.934;9.138;2023-01-25T11:45:38;101985.84;;;1.80;100.00
13348;BME280;6743;49.934;9.138;2023-01-25T11:48:29;101981.41;;;1.82;100.00
13348;BME280;6743;49.934;9.138;2023-01-25T11:51:02;101963.94;;;1.82;100.00
13348;BME280;6743;49.934;9.138;2023-01-25T11:53:44;101968.19;;;1.85;100.00
13348;BME280;6743;49.934;9.138;2023-01-25T11:56:16;101967.28;;;1.86;100.00
13348;BME280;6743;49.934;9.138;2023-01-25T11:58:55;101948.09;;;1.85;100.00
13348;BME280;6743;49.934;9.138;2023-01-25T12:01:34;101961.19;;;1.85;100.00
13348;BME280;6743;49.934;9.138;2023-01-25T12:04:30;101956.94;;;1.83;100.00
13348;BME280;6743;49.934;9.138;2023-01-25T12:07:03;101947.38;;;1.82;100.00
13348;BME280;6743;49.934;9.138;2023-01-25T12:09:48;101940.44;;;1.81;100.00
13348;BME280;6743;49.934;9.138;2023-01-25T12:12:26;101946.75;;;1.77;100.00
13348;BME280;6743;49.934;9.138;2023-01-25T12:15:10;101943.34;;;1.75;100.00
13348;BME280;6743;49.934;9.138;2023-01-25T12:17:59;101940.78;;;1.73;100.00
13348;BME280;6743;49.934;9.138;2023-01-25T12:20:55;101919.66;;;1.78;100.00
13348;BME280;6743;49.934;9.138;2023-01-25T12:23:34;101912.66;;;1.78;100.00
13348;BME280;6743;49.934;9.138;2023-01-25T12:26:11;101906.38;;;1.82;100.00
13348;BME280;6743;49.934;9.138;2023-01-25T12:28:43;101902.84;;;1.83;100.00
13348;BME280;6743;49.934;9.138;2023-01-25T12:31:17;101892.31;;;1.85;100.00
13348;BME280;6743;49.934;9.138;2023-01-25T12:33:46;101887.81;;;1.87;100.00
13348;BME280;6743;49.934;9.138;2023-01-25T12:36:19;101885.22;;;1.87;100.00
13348;BME280;6743;49.934;9.138;2023-01-25T12:38:56;101886.91;;;1.88;100.00
13348;BME280;6743;49.934;9.138;2023-01-25T12:41:38;101873.94;;;1.86;100.00
13348;BME280;6743;49.934;9.138;2023-01-25T12:44:14;101866.88;;;1.87;100.00
13348;BME280;6743;49.934;9.138;2023-01-25T12:46:47;101876.44;;;1.88;100.00
13348;BME280;6743;49.934;9.138;2023-01-25T12:49:21;101867.75;;;1.87;100.00
13348;BME280;6743;49.934;9.138;2023-01-25T12:51:50;101865.06;;;1.89;100.00
13348;BME280;6743;49.934;9.138;2023-01-25T12:54:24;101859.75;;;1.90;100.00
13348;BME280;6743;49.934;9.138;2023-01-25T12:56:57;101857.09;;;1.92;100.00
13348;BME280;6743;49.934;9.138;2023-01-25T12:59:36;101849.22;;;1.92;100.00
13348;BME280;6743;49.934;9.138;2023-01-25T13:02:40;101847.59;;;1.89;100.00
13348;BME280;6743;49.934;9.138;2023-01-25T13:05:24;101846.69;;;1.90;100.00
13348;BME280;6743;49.934;9.138;2023-01-25T13:08:03;101837.06;;;1.91;100.00
13348;BME280;6743;49.934;9.138;2023-01-25T13:10:35;101838.81;;;1.90;100.00
13348;BME280;6743;49.934;9.138;2023-01-25T13:13:19;101830.34;;;1.85;100.00
13348;BME280;6743;49.934;9.138;2023-01-25T13:15:46;101829.22;;;1.91;100.00